sensor_id;sensor_type;location;lat;lon;timestamp;P1;P4;P2;P0;N10;N4;N25;N1;N05;TS
78730;SPS30;68055;51.978;5.658;2023-05-16T00:01:44;3.5;3.3;3.0;2.5;;;;6.0;39.0;
78730;SPS30;68055;51.978;5.658;2023-05-16T00:04:14;3.6;3.4;3.1;2.6;;;;6.0;38.0;
78730;SPS30;68055;51.978;5.658;2023-05-16T00:06:43;3.0;2.8;2.6;2.1;;;;6.0;37.0;
78730;SPS30;68055;51.978;5.658;2023-05-16T00:09:13;4.0;3.8;3.4;2.8;;;;6.0;41.0;
78730;SPS30;68055;51.978;5.658;2023-05-16T00:11:43;3.2;3.0;2.7;2.3;;;;6.0;41.0;
78730;SPS30;68055;51.978;5.658;2023-05-16T00:14:14;3.1;2.9;2.6;2.1;;;;5.0;52.0;
78730;SPS30;68055;51.978;5.658;2023-05-16T00:16:45;3.5;3.3;3.0;2.4;;;;5.0;61.0;
78730;SPS30;68055;51.978;5.658;2023-05-16T00:19:15;3.9;3.7;3.4;2.8;;;;5.0;63.0;
78730;SPS30;68055;51.978;5.658;2023-05-16T00:21:44;2.8;2.7;2.4;2.0;;;;5.0;59.0;
78730;SPS30;68055;51.978;5.658;2023-05-16T00:24:16;3.9;3.7;3.4;2.8;;;;5.0;56.0;
78730;SPS30;68055;51.978;5.658;2023-05-16T00:26:46;3.9;3.7;3.3;2.7;;;;5.0;56.0;
78730;SPS30;68055;51.978;5.658;2023-05-16T00:29:15;3.1;3.0;2.6;2.1;;;;4.0;57.0;
78730;SPS30;68055;51.978;5.658;2023-05-16T00:31:45;3.0;2.8;2.5;2.1;;;;4.0;67.0;
78730;SPS30;68055;51.978;5.658;2023-05-16T00:34:14;3.2;3.0;2.7;2.3;;;;4.0;74.0;
78730;SPS30;68055;51.978;5.658;2023-05-16T00:36:45;3.1;3.0;2.7;2.3;;;;4.0;71.0;
78730;SPS30;68055;51.978;5.658;2023-05-16T00:39:15;3.3;3.1;2.8;2.3;;;;4.0;75.0;
78730;SPS30;68055;51.978;5.658;2023-05-16T00:41:44;3.0;2.8;2.5;2.1;;;;4.0;71.0;
78730;SPS30;68055;51.978;5.658;2023-05-16T00:44:14;3.8;3.6;3.1;2.5;;;;4.0;70.0;
78730;SPS30;68055;51.978;5.658;2023-05-16T00:46:44;3.1;3.0;2.6;2.1;;;;4.0;85.0;
78730;SPS30;68055;51.978;5.658;2023-05-16T00:49:14;3.7;3.5;3.1;2.5;;;;4.0;89.0;
78730;SPS30;68055;51.978;5.658;2023-05-16T00:51:44;3.7;3.5;3.1;2.6;;;;4.0;87.0;
78730;SPS30;68055;51.978;5.658;2023-05-16T00:54:13;4.2;4.0;3.6;2.9;;;;4.0;89.0;
78730;SPS30;68055;51.978;5.658;2023-05-16T00:56:43;2.6;2.5;2.2;1.8;;;;4.0;100.0;
78730;SPS30;68055;51.978;5.658;2023-05-16T00:59:13;3.3;3.2;2.9;2.3;;;;3.0;119.0;
78730;SPS30;68055;51.978;5.658;2023-05-16T01:01:45;3.1;3.0;2.7;2.2;;;;3.0;111.0;
78730;SPS30;68055;51.978;5.658;2023-05-16T01:04:16;3.0;2.8;2.6;2.2;;;;3.0;111.0;
78730;SPS30;68055;51.978;5.658;2023-05-16T01:06:46;3.2;3.1;2.9;2.5;;;;3.0;108.0;
78730;SPS30;68055;51.978;5.658;2023-05-16T01:09:16;3.2;3.1;2.9;2.5;;;;3.0;109.0;
78730;SPS30;68055;51.978;5.658;2023-05-16T01:11:49;2.7;2.7;2.5;2.2;;;;3.0;109.0;
78730;SPS30;68055;51.978;5.658;2023-05-16T01:14:24;2.9;2.8;2.5;2.1;;;;3.0;130.0;
78730;SPS30;68055;51.978;5.658;2023-05-16T01:17:06;2.4;2.3;2.1;1.8;;;;3.0;131.0;
78730;SPS30;68055;51.978;5.658;2023-05-16T01:19:49;2.8;2.7;2.5;2.1;;;;3.0;129.0;
78730;SPS30;68055;51.978;5.658;2023-05-16T01:22:34;3.3;3.1;2.9;2.5;;;;3.0;126.0;
78730;SPS30;68055;51.978;5.658;2023-05-16T01:25:18;2.9;2.8;2.5;2.2;;;;3.0;127.0;
78730;SPS30;68055;51.978;5.658;2023-05-16T01:27:54;3.2;3.1;2.7;2.3;;;;2.0;124.0;
78730;SPS30;68055;51.978;5.658;2023-05-16T01:30:30;3.1;2.9;2.7;2.2;;;;2.0;127.0;
78730;SPS30;68055;51.978;5.658;2023-05-16T01:33:02;2.9;2.8;2.5;2.1;;;;2.0;128.0;
78730;SPS30;68055;51.978;5.658;2023-05-16T01:35:32;2.9;2.8;2.5;2.0;;;;2.0;127.0;
78730;SPS30;68055;51.978;5.658;2023-05-16T01:38:09;2.8;2.6;2.4;2.0;;;;2.0;131.0;
78730;SPS30;68055;51.978;5.658;2023-05-16T01:40:45;3.3;3.1;2.8;2.2;;;;2.0;113.0;
78730;SPS30;68055;51.978;5.658;2023-05-16T01:43:23;3.0;2.8;2.5;2.0;;;;2.0;95.0;
78730;SPS30;68055;51.978;5.658;2023-05-16T01:46:07;2.9;2.7;2.3;1.8;;;;2.0;98.0;
78730;SPS30;68055;51.978;5.658;2023-05-16T01:48:42;2.8;2.7;2.3;1.8;;;;2.0;101.0;
78730;SPS30;68055;51.978;5.658;2023-05-16T01:51:18;2.5;2.3;2.0;1.6;;;;2.0;101.0;
78730;SPS30;68055;51.978;5.658;2023-05-16T01:53:51;3.3;3.1;2.6;2.0;;;;2.0;104.0;
78730;SPS30;68055;51.978;5.658;2023-05-16T01:56:22;3.2;3.0;2.6;1.9;;;;2.0;107.0;
78730;SPS30;68055;51.978;5.658;2023-05-16T01:58:53;2.6;2.4;2.1;1.6;;;;2.0;108.0;
78730;SPS30;68055;51.978;5.658;2023-05-16T02:11:15;3.0;2.8;2.4;1.8;;;;2.0;108.0;
78730;SPS30;68055;51.978;5.658;2023-05-16T02:13:45;3.2;3.0;2.6;2.0;;;;2.0;108.0;
78730;SPS30;68055;51.978;5.658;2023-05-16T02:16:14;3.1;2.9;2.4;1.8;;;;2.0;133.0;
78730;SPS30;68055;51.978;5.658;2023-05-16T02:18:44;2.5;2.4;2.0;1.5;;;;2.0;133.0;
78730;SPS30;68055;51.978;5.658;2023-05-16T02:21:14;3.0;2.8;2.4;1.9;;;;2.0;141.0;
78730;SPS30;68055;51.978;5.658;2023-05-16T02:23:44;3.0;2.8;2.4;1.8;;;;2.0;134.0;
78730;SPS30;68055;51.978;5.658;2023-05-16T02:26:13;2.9;2.7;2.3;1.7;;;;2.0;135.0;
78730;SPS30;68055;51.978;5.658;2023-05-16T02:28:43;2.7;2.5;2.2;1.6;;;;2.0;134.0;
78730;SPS30;68055;51.978;5.658;2023-05-16T02:31:12;3.0;2.8;2.4;1.9;;;;2.0;135.0;
78730;SPS30;68055;51.978;5.658;2023-05-16T02:33:47;2.4;2.3;2.0;1.6;;;;2.0;134.0;
78730;SPS30;68055;51.978;5.658;2023-05-16T02:36:17;2.6;2.4;2.1;1.7;;;;2.0;118.0;
78730;SPS30;68055;51.978;5.658;2023-05-16T02:38:47;2.7;2.6;2.2;1.8;;;;2.0;132.0;
78730;SPS30;68055;51.978;5.658;2023-05-16T02:41:17;2.4;2.3;2.0;1.6;;;;2.0;140.0;
78730;SPS30;68055;51.978;5.658;2023-05-16T02:43:48;2.8;2.6;2.3;1.8;;;;2.0;140.0;
78730;SPS30;68055;51.978;5.658;2023-05-16T02:46:21;3.0;2.8;2.5;2.0;;;;2.0;151.0;
78730;SPS30;68055;51.978;5.658;2023-05-16T02:48:51;2.5;2.4;2.0;1.6;;;;2.0;146.0;
78730;SPS30;68055;51.978;5.658;2023-05-16T02:51:23;2.8;2.6;2.2;1.7;;;;2.0;149.0;
78730;SPS30;68055;51.978;5.658;2023-05-16T02:53:54;3.6;3.3;2.8;2.0;;;;2.0;145.0;
78730;SPS30;68055;51.978;5.658;2023-05-16T02:56:25;2.1;2.0;1.7;1.2;;;;2.0;135.0;
78730;SPS30;68055;51.978;5.658;2023-05-16T02:58:55;2.4;2.2;1.8;1.3;;;;2.0;108.0;
78730;SPS30;68055;51.978;5.658;2023-05-16T03:01:25;3.2;2.9;2.4;1.6;;;;2.0;111.0;
78730;SPS30;68055;51.978;5.658;2023-05-16T03:03:55;3.3;3.0;2.4;1.6;;;;2.0;111.0;
78730;SPS30;68055;51.978;5.658;2023-05-16T03:06:24;3.1;2.9;2.3;1.6;;;;2.0;109.0;
78730;SPS30;68055;51.978;5.658;2023-05-16T03:08:54;3.3;3.0;2.4;1.7;;;;2.0;85.0;
78730;SPS30;68055;51.978;5.658;2023-05-16T03:11:24;3.1;2.8;2.2;1.5;;;;2.0;96.0;
78730;SPS30;68055;51.978;5.658;2023-05-16T03:13:55;3.1;2.9;2.3;1.5;;;;2.0;89.0;
78730;SPS30;68055;51.978;5.658;2023-05-16T03:16:26;3.6;3.3;2.7;1.9;;;;2.0;93.0;
78730;SPS30;68055;51.978;5.658;2023-05-16T03:18:55;3.4;3.1;2.6;1.8;;;;2.0;102.0;
78730;SPS30;68055;51.978;5.658;2023-05-16T03:21:25;3.4;3.1;2.6;1.8;;;;2.0;109.0;
78730;SPS30;68055;51.978;5.658;2023-05-16T03:23:54;2.8;2.6;2.2;1.6;;;;2.0;109.0;
78730;SPS30;68055;51.978;5.658;2023-05-16T03:26:26;2.2;2.1;1.8;1.3;;;;2.0;115.0;
78730;SPS30;68055;51.978;5.658;2023-05-16T03:28:56;3.3;3.0;2.6;1.9;;;;2.0;119.0;
78730;SPS30;68055;51.978;5.658;2023-05-16T03:31:25;3.4;3.2;2.7;2.0;;;;2.0;133.0;
78730;SPS30;68055;51.978;5.658;2023-05-16T03:33:55;3.1;2.8;2.4;1.8;;;;2.0;132.0;
78730;SPS30;68055;51.978;5.658;2023-05-16T03:36:25;3.6;3.3;2.7;1.9;;;;2.0;128.0;
78730;SPS30;68055;51.978;5.658;2023-05-16T03:38:55;3.7;3.4;2.8;2.1;;;;2.0;127.0;
78730;SPS30;68055;51.978;5.658;2023-05-16T03:41:25;2.4;2.3;2.0;1.5;;;;2.0;128.0;
78730;SPS30;68055;51.978;5.658;2023-05-16T03:43:55;3.1;3.0;2.5;2.0;;;;2.0;141.0;
78730;SPS30;68055;51.978;5.658;2023-05-16T03:46:25;2.7;2.6;2.2;1.7;;;;2.0;162.0;
78730;SPS30;68055;51.978;5.658;2023-05-16T03:48:54;3.4;3.2;2.8;2.2;;;;2.0;175.0;
78730;SPS30;68055;51.978;5.658;2023-05-16T03:51:24;3.1;2.9;2.5;2.0;;;;2.0;163.0;
78730;SPS30;68055;51.978;5.658;2023-05-16T03:53:54;3.1;2.9;2.5;2.0;;;;2.0;159.0;
78730;SPS30;68055;51.978;5.658;2023-05-16T03:56:24;2.9;2.8;2.4;1.9;;;;2.0;153.0;
78730;SPS30;68055;51.978;5.658;2023-05-16T03:58:54;3.1;2.9;2.6;2.1;;;;2.0;146.0;
78730;SPS30;68055;51.978;5.658;2023-05-16T04:01:24;2.5;2.4;2.1;1.7;;;;1.0;150.0;
78730;SPS30;68055;51.978;5.658;2023-05-16T04:03:54;3.0;2.8;2.5;2.0;;;;1.0;147.0;
78730;SPS30;68055;51.978;5.658;2023-05-16T04:06:23;2.7;2.5;2.2;1.7;;;;1.0;137.0;
78730;SPS30;68055;51.978;5.658;2023-05-16T04:08:53;2.6;2.5;2.1;1.6;;;;1.0;137.0;
78730;SPS30;68055;51.978;5.658;2023-05-16T04:11:24;3.1;2.9;2.5;1.9;;;;1.0;134.0;
78730;SPS30;68055;51.978;5.658;2023-05-16T04:13:54;3.1;2.9;2.5;1.8;;;;1.0;132.0;
78730;SPS30;68055;51.978;5.658;2023-05-16T04:16:24;2.4;2.2;1.9;1.5;;;;1.0;133.0;
78730;SPS30;68055;51.978;5.658;2023-05-16T04:18:54;2.7;2.6;2.3;1.8;;;;1.0;131.0;
78730;SPS30;68055;51.978;5.658;2023-05-16T04:21:25;3.5;3.3;2.8;2.2;;;;1.0;131.0;
78730;SPS30;68055;51.978;5.658;2023-05-16T04:23:55;3.8;3.5;3.0;2.3;;;;1.0;129.0;
78730;SPS30;68055;51.978;5.658;2023-05-16T04:26:24;3.4;3.2;2.8;2.1;;;;1.0;129.0;
78730;SPS30;68055;51.978;5.658;2023-05-16T04:28:54;2.9;2.7;2.3;1.7;;;;1.0;137.0;
78730;SPS30;68055;51.978;5.658;2023-05-16T04:31:26;3.3;3.1;2.6;2.0;;;;1.0;136.0;
78730;SPS30;68055;51.978;5.658;2023-05-16T04:33:56;3.3;3.1;2.7;2.2;;;;1.0;137.0;
78730;SPS30;68055;51.978;5.658;2023-05-16T04:36:26;2.8;2.7;2.3;1.8;;;;1.0;140.0;
78730;SPS30;68055;51.978;5.658;2023-05-16T04:38:57;2.7;2.5;2.2;1.7;;;;1.0;135.0;
78730;SPS30;68055;51.978;5.658;2023-05-16T04:41:27;2.8;2.6;2.2;1.7;;;;1.0;145.0;
78730;SPS30;68055;51.978;5.658;2023-05-16T04:43:56;2.6;2.4;2.1;1.6;;;;1.0;151.0;
78730;SPS30;68055;51.978;5.658;2023-05-16T04:46:26;3.0;2.9;2.5;2.0;;;;1.0;151.0;
78730;SPS30;68055;51.978;5.658;2023-05-16T04:48:56;3.0;2.8;2.5;1.9;;;;1.0;146.0;
78730;SPS30;68055;51.978;5.658;2023-05-16T04:51:25;2.9;2.7;2.4;1.9;;;;1.0;139.0;
78730;SPS30;68055;51.978;5.658;2023-05-16T04:53:58;2.9;2.7;2.5;2.0;;;;2.0;136.0;
78730;SPS30;68055;51.978;5.658;2023-05-16T04:56:28;3.9;3.7;3.3;2.6;;;;2.0;135.0;
78730;SPS30;68055;51.978;5.658;2023-05-16T04:58:58;2.8;2.6;2.4;1.9;;;;2.0;137.0;
78730;SPS30;68055;51.978;5.658;2023-05-16T05:01:27;3.4;3.2;2.9;2.3;;;;2.0;139.0;
78730;SPS30;68055;51.978;5.658;2023-05-16T05:03:57;3.4;3.3;2.9;2.4;;;;2.0;137.0;
78730;SPS30;68055;51.978;5.658;2023-05-16T05:06:29;2.6;2.5;2.2;1.8;;;;2.0;133.0;
78730;SPS30;68055;51.978;5.658;2023-05-16T05:08:58;2.5;2.4;2.2;1.8;;;;2.0;144.0;
78730;SPS30;68055;51.978;5.658;2023-05-16T05:11:28;3.0;2.8;2.6;2.1;;;;2.0;146.0;
78730;SPS30;68055;51.978;5.658;2023-05-16T05:13:57;3.5;3.3;3.0;2.5;;;;2.0;142.0;
78730;SPS30;68055;51.978;5.658;2023-05-16T05:16:27;3.4;3.3;2.9;2.4;;;;2.0;170.0;
78730;SPS30;68055;51.978;5.658;2023-05-16T05:18:56;2.7;2.6;2.3;1.8;;;;2.0;160.0;
78730;SPS30;68055;51.978;5.658;2023-05-16T05:21:27;2.9;2.7;2.5;2.0;;;;2.0;142.0;
78730;SPS30;68055;51.978;5.658;2023-05-16T05:23:57;3.1;2.9;2.7;2.2;;;;2.0;129.0;
78730;SPS30;68055;51.978;5.658;2023-05-16T05:26:27;3.4;3.2;2.8;2.3;;;;2.0;129.0;
78730;SPS30;68055;51.978;5.658;2023-05-16T05:28:56;3.7;3.5;3.0;2.3;;;;2.0;125.0;
78730;SPS30;68055;51.978;5.658;2023-05-16T05:31:26;3.5;3.3;2.9;2.3;;;;2.0;123.0;
78730;SPS30;68055;51.978;5.658;2023-05-16T05:33:56;2.8;2.7;2.3;1.8;;;;2.0;127.0;
78730;SPS30;68055;51.978;5.658;2023-05-16T05:36:25;2.6;2.4;2.1;1.6;;;;2.0;119.0;
78730;SPS30;68055;51.978;5.658;2023-05-16T05:38:55;2.4;2.2;1.9;1.5;;;;2.0;123.0;
78730;SPS30;68055;51.978;5.658;2023-05-16T05:41:25;2.6;2.5;2.1;1.7;;;;2.0;123.0;
78730;SPS30;68055;51.978;5.658;2023-05-16T05:43:55;2.9;2.7;2.3;1.7;;;;2.0;110.0;
78730;SPS30;68055;51.978;5.658;2023-05-16T05:46:24;2.4;2.3;2.0;1.5;;;;2.0;114.0;
78730;SPS30;68055;51.978;5.658;2023-05-16T05:48:54;2.7;2.5;2.2;1.7;;;;2.0;107.0;
78730;SPS30;68055;51.978;5.658;2023-05-16T05:51:24;2.9;2.7;2.3;1.7;;;;2.0;104.0;
78730;SPS30;68055;51.978;5.658;2023-05-16T05:53:54;3.7;3.4;2.9;2.0;;;;2.0;105.0;
78730;SPS30;68055;51.978;5.658;2023-05-16T05:56:26;3.8;3.5;2.9;2.1;;;;2.0;101.0;
78730;SPS30;68055;51.978;5.658;2023-05-16T05:58:56;3.1;2.9;2.4;1.8;;;;2.0;97.0;
78730;SPS30;68055;51.978;5.658;2023-05-16T06:01:27;3.7;3.5;2.9;2.1;;;;2.0;109.0;
78730;SPS30;68055;51.978;5.658;2023-05-16T06:03:57;2.6;2.4;2.1;1.6;;;;2.0;103.0;
78730;SPS30;68055;51.978;5.658;2023-05-16T06:06:27;2.7;2.6;2.2;1.7;;;;2.0;103.0;
78730;SPS30;68055;51.978;5.658;2023-05-16T06:08:57;2.6;2.4;2.1;1.6;;;;2.0;116.0;
78730;SPS30;68055;51.978;5.658;2023-05-16T06:11:27;2.5;2.3;1.9;1.4;;;;2.0;106.0;
78730;SPS30;68055;51.978;5.658;2023-05-16T06:13:56;3.0;2.8;2.3;1.7;;;;2.0;101.0;
78730;SPS30;68055;51.978;5.658;2023-05-16T06:16:26;2.6;2.4;2.0;1.5;;;;2.0;98.0;
78730;SPS30;68055;51.978;5.658;2023-05-16T06:18:56;2.8;2.6;2.2;1.6;;;;2.0;99.0;
78730;SPS30;68055;51.978;5.658;2023-05-16T06:21:26;3.1;2.9;2.4;1.7;;;;2.0;99.0;
78730;SPS30;68055;51.978;5.658;2023-05-16T06:23:55;2.4;2.3;1.9;1.4;;;;2.0;114.0;
78730;SPS30;68055;51.978;5.658;2023-05-16T06:26:25;3.1;2.9;2.4;1.7;;;;2.0;116.0;
78730;SPS30;68055;51.978;5.658;2023-05-16T06:28:54;2.7;2.5;2.1;1.5;;;;2.0;92.0;
78730;SPS30;68055;51.978;5.658;2023-05-16T06:31:25;3.0;2.8;2.3;1.7;;;;2.0;81.0;
78730;SPS30;68055;51.978;5.658;2023-05-16T06:33:55;2.8;2.6;2.2;1.6;;;;2.0;81.0;
78730;SPS30;68055;51.978;5.658;2023-05-16T06:36:24;2.7;2.5;2.1;1.5;;;;2.0;91.0;
78730;SPS30;68055;51.978;5.658;2023-05-16T06:38:54;2.8;2.6;2.2;1.6;;;;2.0;115.0;
78730;SPS30;68055;51.978;5.658;2023-05-16T06:41:23;2.8;2.5;2.1;1.5;;;;2.0;120.0;
78730;SPS30;68055;51.978;5.658;2023-05-16T06:43:53;2.2;2.0;1.6;1.1;;;;2.0;115.0;
78730;SPS30;68055;51.978;5.658;2023-05-16T06:46:23;2.5;2.3;1.9;1.3;;;;2.0;91.0;
78730;SPS30;68055;51.978;5.658;2023-05-16T06:48:52;2.5;2.3;1.9;1.3;;;;2.0;84.0;
78730;SPS30;68055;51.978;5.658;2023-05-16T06:51:22;2.2;2.0;1.7;1.2;;;;2.0;77.0;
78730;SPS30;68055;51.978;5.658;2023-05-16T06:53:51;2.2;2.0;1.7;1.2;;;;2.0;96.0;
78730;SPS30;68055;51.978;5.658;2023-05-16T06:56:21;2.3;2.1;1.8;1.3;;;;2.0;88.0;
78730;SPS30;68055;51.978;5.658;2023-05-16T06:58:51;2.2;2.0;1.6;1.1;;;;2.0;75.0;
78730;SPS30;68055;51.978;5.658;2023-05-16T07:01:20;2.4;2.2;1.8;1.2;;;;2.0;61.0;
78730;SPS30;68055;51.978;5.658;2023-05-16T07:03:51;2.1;1.9;1.5;1.0;;;;2.0;62.0;
78730;SPS30;68055;51.978;5.658;2023-05-16T07:06:21;2.3;2.1;1.6;1.0;;;;2.0;65.0;
78730;SPS30;68055;51.978;5.658;2023-05-16T07:08:51;2.4;2.2;1.7;1.1;;;;2.0;63.0;
78730;SPS30;68055;51.978;5.658;2023-05-16T07:11:21;2.0;1.8;1.4;0.9;;;;2.0;60.0;
78730;SPS30;68055;51.978;5.658;2023-05-16T07:13:51;2.2;2.0;1.6;1.0;;;;2.0;61.0;
78730;SPS30;68055;51.978;5.658;2023-05-16T07:16:20;2.3;2.1;1.6;1.0;;;;2.0;59.0;
78730;SPS30;68055;51.978;5.658;2023-05-16T07:18:50;2.4;2.2;1.7;1.1;;;;2.0;59.0;
78730;SPS30;68055;51.978;5.658;2023-05-16T07:21:20;1.7;1.5;1.2;0.8;;;;2.0;62.0;
78730;SPS30;68055;51.978;5.658;2023-05-16T07:23:49;1.9;1.7;1.4;0.9;;;;2.0;65.0;
78730;SPS30;68055;51.978;5.658;2023-05-16T07:26:19;2.5;2.3;1.8;1.1;;;;2.0;68.0;
78730;SPS30;68055;51.978;5.658;2023-05-16T07:28:50;2.1;1.9;1.5;1.0;;;;2.0;68.0;
78730;SPS30;68055;51.978;5.658;2023-05-16T07:31:19;2.2;2.0;1.6;1.1;;;;2.0;65.0;
78730;SPS30;68055;51.978;5.658;2023-05-16T07:33:50;1.6;1.5;1.2;0.8;;;;2.0;50.0;
78730;SPS30;68055;51.978;5.658;2023-05-16T07:36:19;2.1;1.9;1.5;1.0;;;;2.0;49.0;
78730;SPS30;68055;51.978;5.658;2023-05-16T07:38:49;1.5;1.4;1.1;0.7;;;;2.0;50.0;
78730;SPS30;68055;51.978;5.658;2023-05-16T07:41:18;1.4;1.3;1.0;0.7;;;;2.0;50.0;
78730;SPS30;68055;51.978;5.658;2023-05-16T07:43:48;2.0;1.8;1.4;1.0;;;;2.0;48.0;
78730;SPS30;68055;51.978;5.658;2023-05-16T07:46:20;2.2;2.0;1.6;1.1;;;;2.0;47.0;
78730;SPS30;68055;51.978;5.658;2023-05-16T07:48:49;1.6;1.5;1.2;0.8;;;;2.0;54.0;
78730;SPS30;68055;51.978;5.658;2023-05-16T07:51:19;2.2;2.0;1.7;1.1;;;;2.0;76.0;
78730;SPS30;68055;51.978;5.658;2023-05-16T07:53:49;2.4;2.2;1.8;1.2;;;;2.0;76.0;
78730;SPS30;68055;51.978;5.658;2023-05-16T07:56:18;1.3;1.2;1.0;0.7;;;;2.0;72.0;
78730;SPS30;68055;51.978;5.658;2023-05-16T07:58:48;1.7;1.6;1.3;0.9;;;;2.0;67.0;
78730;SPS30;68055;51.978;5.658;2023-05-16T08:01:19;1.9;1.7;1.4;1.0;;;;2.0;69.0;
78730;SPS30;68055;51.978;5.658;2023-05-16T08:03:49;2.0;1.9;1.5;1.0;;;;2.0;65.0;
78730;SPS30;68055;51.978;5.658;2023-05-16T08:06:19;1.9;1.8;1.4;0.9;;;;1.0;63.0;
78730;SPS30;68055;51.978;5.658;2023-05-16T08:08:49;1.4;1.3;1.0;0.7;;;;1.0;62.0;
78730;SPS30;68055;51.978;5.658;2023-05-16T08:11:19;1.8;1.7;1.4;0.9;;;;1.0;62.0;
78730;SPS30;68055;51.978;5.658;2023-05-16T08:13:50;1.8;1.7;1.3;0.9;;;;1.0;61.0;
78730;SPS30;68055;51.978;5.658;2023-05-16T08:16:21;2.0;1.8;1.5;1.0;;;;1.0;65.0;
78730;SPS30;68055;51.978;5.658;2023-05-16T08:18:51;1.4;1.3;1.1;0.7;;;;1.0;64.0;
78730;SPS30;68055;51.978;5.658;2023-05-16T08:21:21;1.8;1.7;1.3;0.9;;;;1.0;62.0;
78730;SPS30;68055;51.978;5.658;2023-05-16T08:23:51;1.9;1.7;1.4;1.0;;;;1.0;62.0;
78730;SPS30;68055;51.978;5.658;2023-05-16T08:26:20;1.4;1.3;1.1;0.7;;;;1.0;63.0;
78730;SPS30;68055;51.978;5.658;2023-05-16T08:28:50;1.6;1.5;1.2;0.8;;;;1.0;62.0;
78730;SPS30;68055;51.978;5.658;2023-05-16T08:31:19;1.0;0.9;0.8;0.6;;;;1.0;59.0;
78730;SPS30;68055;51.978;5.658;2023-05-16T08:33:49;1.2;1.1;0.9;0.7;;;;1.0;52.0;
78730;SPS30;68055;51.978;5.658;2023-05-16T08:36:18;1.1;1.0;0.9;0.6;;;;1.0;52.0;
78730;SPS30;68055;51.978;5.658;2023-05-16T08:38:48;1.4;1.3;1.1;0.8;;;;1.0;41.0;
78730;SPS30;68055;51.978;5.658;2023-05-16T08:41:18;1.0;0.9;0.8;0.6;;;;1.0;42.0;
78730;SPS30;68055;51.978;5.658;2023-05-16T08:43:48;1.2;1.1;0.9;0.7;;;;1.0;46.0;
78730;SPS30;68055;51.978;5.658;2023-05-16T08:46:18;1.2;1.2;1.0;0.7;;;;1.0;52.0;
78730;SPS30;68055;51.978;5.658;2023-05-16T08:48:52;1.3;1.2;1.0;0.8;;;;1.0;61.0;
78730;SPS30;68055;51.978;5.658;2023-05-16T08:51:22;1.3;1.2;1.0;0.8;;;;1.0;68.0;
78730;SPS30;68055;51.978;5.658;2023-05-16T08:54:02;1.2;1.1;1.0;0.7;;;;1.0;78.0;
78730;SPS30;68055;51.978;5.658;2023-05-16T08:56:34;1.1;1.1;0.9;0.6;;;;1.0;89.0;
78730;SPS30;68055;51.978;5.658;2023-05-16T08:59:04;0.8;0.7;0.6;0.4;;;;1.0;84.0;
78730;SPS30;68055;51.978;5.658;2023-05-16T09:01:35;1.5;1.4;1.2;0.9;;;;1.0;82.0;
78730;SPS30;68055;51.978;5.658;2023-05-16T09:04:06;1.1;1.0;0.9;0.7;;;;1.0;90.0;
78730;SPS30;68055;51.978;5.658;2023-05-16T09:06:36;1.1;1.0;0.9;0.7;;;;1.0;101.0;
78730;SPS30;68055;51.978;5.658;2023-05-16T09:09:06;1.2;1.1;0.9;0.7;;;;1.0;95.0;
78730;SPS30;68055;51.978;5.658;2023-05-16T09:11:39;1.5;1.4;1.2;0.9;;;;1.0;101.0;
78730;SPS30;68055;51.978;5.658;2023-05-16T09:14:10;1.1;1.0;0.9;0.7;;;;1.0;119.0;
78730;SPS30;68055;51.978;5.658;2023-05-16T09:16:40;1.1;1.1;0.9;0.7;;;;1.0;114.0;
78730;SPS30;68055;51.978;5.658;2023-05-16T09:19:13;1.8;1.7;1.4;1.1;;;;1.0;128.0;
78730;SPS30;68055;51.978;5.658;2023-05-16T09:21:45;1.5;1.4;1.2;0.9;;;;1.0;125.0;
78730;SPS30;68055;51.978;5.658;2023-05-16T09:24:16;1.9;1.8;1.5;1.1;;;;1.0;122.0;
78730;SPS30;68055;51.978;5.658;2023-05-16T09:26:55;1.5;1.4;1.2;0.9;;;;1.0;125.0;
78730;SPS30;68055;51.978;5.658;2023-05-16T09:29:25;1.8;1.6;1.4;1.0;;;;1.0;133.0;
78730;SPS30;68055;51.978;5.658;2023-05-16T09:31:55;1.9;1.7;1.4;1.0;;;;1.0;155.0;
78730;SPS30;68055;51.978;5.658;2023-05-16T09:34:38;2.2;2.1;1.7;1.3;;;;1.0;171.0;
78730;SPS30;68055;51.978;5.658;2023-05-16T09:37:14;1.3;1.2;1.0;0.8;;;;1.0;164.0;
78730;SPS30;68055;51.978;5.658;2023-05-16T09:39:46;1.4;1.3;1.1;0.8;;;;1.0;175.0;
78730;SPS30;68055;51.978;5.658;2023-05-16T09:42:18;1.3;1.2;1.0;0.8;;;;1.0;172.0;
78730;SPS30;68055;51.978;5.658;2023-05-16T09:44:49;1.3;1.2;1.1;0.8;;;;1.0;169.0;
78730;SPS30;68055;51.978;5.658;2023-05-16T09:47:20;1.8;1.7;1.4;1.1;;;;1.0;167.0;
78730;SPS30;68055;51.978;5.658;2023-05-16T09:49:52;2.1;2.0;1.7;1.2;;;;1.0;136.0;
78730;SPS30;68055;51.978;5.658;2023-05-16T09:52:22;1.7;1.6;1.4;1.0;;;;1.0;136.0;
78730;SPS30;68055;51.978;5.658;2023-05-16T09:54:55;1.4;1.3;1.1;0.8;;;;1.0;141.0;
78730;SPS30;68055;51.978;5.658;2023-05-16T09:57:24;1.7;1.6;1.3;0.9;;;;1.0;142.0;
78730;SPS30;68055;51.978;5.658;2023-05-16T09:59:54;1.7;1.5;1.3;0.9;;;;1.0;138.0;
78730;SPS30;68055;51.978;5.658;2023-05-16T10:02:32;1.6;1.5;1.2;0.8;;;;1.0;139.0;
78730;SPS30;68055;51.978;5.658;2023-05-16T10:05:02;2.0;1.8;1.5;1.0;;;;1.0;141.0;
78730;SPS30;68055;51.978;5.658;2023-05-16T10:07:32;1.7;1.6;1.3;0.9;;;;1.0;126.0;
78730;SPS30;68055;51.978;5.658;2023-05-16T10:10:04;1.6;1.5;1.2;0.8;;;;1.0;117.0;
78730;SPS30;68055;51.978;5.658;2023-05-16T10:12:35;1.9;1.7;1.4;0.9;;;;1.0;115.0;
78730;SPS30;68055;51.978;5.658;2023-05-16T10:15:06;1.4;1.3;1.1;0.7;;;;1.0;111.0;
78730;SPS30;68055;51.978;5.658;2023-05-16T10:17:39;2.0;1.8;1.4;1.0;;;;1.0;110.0;
78730;SPS30;68055;51.978;5.658;2023-05-16T10:20:12;1.5;1.4;1.1;0.7;;;;1.0;108.0;
78730;SPS30;68055;51.978;5.658;2023-05-16T10:22:42;1.7;1.6;1.3;0.8;;;;1.0;106.0;
78730;SPS30;68055;51.978;5.658;2023-05-16T10:25:14;1.9;1.8;1.4;1.0;;;;1.0;104.0;
78730;SPS30;68055;51.978;5.658;2023-05-16T10:27:50;1.6;1.4;1.1;0.7;;;;1.0;104.0;
78730;SPS30;68055;51.978;5.658;2023-05-16T10:30:20;1.9;1.7;1.4;1.0;;;;1.0;111.0;
78730;SPS30;68055;51.978;5.658;2023-05-16T10:32:50;1.7;1.6;1.3;0.9;;;;1.0;116.0;
78730;SPS30;68055;51.978;5.658;2023-05-16T10:35:21;2.0;1.8;1.5;1.0;;;;1.0;142.0;
78730;SPS30;68055;51.978;5.658;2023-05-16T10:37:53;1.9;1.7;1.4;1.0;;;;1.0;132.0;
78730;SPS30;68055;51.978;5.658;2023-05-16T10:40:24;1.3;1.2;1.0;0.7;;;;1.0;129.0;
78730;SPS30;68055;51.978;5.658;2023-05-16T10:42:56;1.7;1.5;1.2;0.8;;;;1.0;151.0;
78730;SPS30;68055;51.978;5.658;2023-05-16T10:45:26;1.3;1.2;1.0;0.7;;;;1.0;162.0;
78730;SPS30;68055;51.978;5.658;2023-05-16T10:47:56;1.7;1.6;1.3;0.9;;;;1.0;157.0;
78730;SPS30;68055;51.978;5.658;2023-05-16T10:50:34;1.6;1.5;1.2;0.8;;;;1.0;157.0;
78730;SPS30;68055;51.978;5.658;2023-05-16T10:53:13;1.7;1.5;1.3;0.9;;;;1.0;151.0;
78730;SPS30;68055;51.978;5.658;2023-05-16T10:56:04;1.7;1.6;1.3;0.9;;;;1.0;142.0;
78730;SPS30;68055;51.978;5.658;2023-05-16T10:58:43;1.6;1.5;1.2;0.8;;;;1.0;123.0;
78730;SPS30;68055;51.978;5.658;2023-05-16T11:01:16;1.5;1.4;1.1;0.8;;;;1.0;121.0;
78730;SPS30;68055;51.978;5.658;2023-05-16T11:04:08;1.6;1.4;1.2;0.8;;;;1.0;118.0;
78730;SPS30;68055;51.978;5.658;2023-05-16T11:07:12;1.2;1.1;0.9;0.6;;;;1.0;112.0;
78730;SPS30;68055;51.978;5.658;2023-05-16T11:09:44;1.6;1.4;1.2;0.8;;;;1.0;108.0;
78730;SPS30;68055;51.978;5.658;2023-05-16T11:12:14;1.8;1.6;1.3;0.9;;;;1.0;112.0;
78730;SPS30;68055;51.978;5.658;2023-05-16T11:14:44;1.3;1.2;0.9;0.7;;;;1.0;130.0;
78730;SPS30;68055;51.978;5.658;2023-05-16T11:17:21;2.0;1.8;1.5;1.0;;;;1.0;120.0;
78730;SPS30;68055;51.978;5.658;2023-05-16T11:19:54;1.1;1.0;0.8;0.6;;;;1.0;115.0;
78730;SPS30;68055;51.978;5.658;2023-05-16T11:22:27;1.5;1.4;1.1;0.8;;;;1.0;165.0;
78730;SPS30;68055;51.978;5.658;2023-05-16T11:24:59;1.6;1.5;1.2;0.9;;;;1.0;119.0;
78730;SPS30;68055;51.978;5.658;2023-05-16T11:27:30;2.1;2.0;1.6;1.1;;;;1.0;111.0;
78730;SPS30;68055;51.978;5.658;2023-05-16T11:30:09;1.5;1.4;1.1;0.8;;;;1.0;111.0;
78730;SPS30;68055;51.978;5.658;2023-05-16T11:32:42;1.7;1.6;1.3;0.9;;;;1.0;109.0;
78730;SPS30;68055;51.978;5.658;2023-05-16T11:35:13;2.4;2.2;1.8;1.2;;;;1.0;98.0;
78730;SPS30;68055;51.978;5.658;2023-05-16T11:37:44;1.9;1.8;1.5;1.0;;;;1.0;82.0;
78730;SPS30;68055;51.978;5.658;2023-05-16T11:40:16;1.7;1.5;1.3;0.9;;;;1.0;81.0;
78730;SPS30;68055;51.978;5.658;2023-05-16T11:42:46;1.7;1.5;1.3;0.9;;;;1.0;72.0;
78730;SPS30;68055;51.978;5.658;2023-05-16T11:45:18;1.7;1.6;1.3;1.0;;;;1.0;68.0;
78730;SPS30;68055;51.978;5.658;2023-05-16T11:47:51;1.7;1.6;1.4;1.0;;;;1.0;74.0;
78730;SPS30;68055;51.978;5.658;2023-05-16T11:50:23;1.7;1.6;1.3;1.0;;;;1.0;97.0;
78730;SPS30;68055;51.978;5.658;2023-05-16T11:52:53;1.4;1.3;1.1;0.9;;;;1.0;94.0;
78730;SPS30;68055;51.978;5.658;2023-05-16T11:55:25;1.8;1.7;1.4;1.1;;;;1.0;88.0;
78730;SPS30;68055;51.978;5.658;2023-05-16T11:57:57;1.7;1.6;1.4;1.0;;;;1.0;83.0;
78730;SPS30;68055;51.978;5.658;2023-05-16T12:00:28;2.0;1.9;1.6;1.2;;;;1.0;86.0;
78730;SPS30;68055;51.978;5.658;2023-05-16T12:03:01;1.8;1.7;1.4;1.0;;;;1.0;78.0;
78730;SPS30;68055;51.978;5.658;2023-05-16T12:05:34;1.8;1.7;1.4;1.1;;;;1.0;76.0;
78730;SPS30;68055;51.978;5.658;2023-05-16T12:08:04;1.9;1.8;1.5;1.1;;;;1.0;75.0;
78730;SPS30;68055;51.978;5.658;2023-05-16T12:10:38;1.4;1.3;1.1;0.8;;;;1.0;79.0;
78730;SPS30;68055;51.978;5.658;2023-05-16T12:13:08;0.9;0.8;0.7;0.5;;;;1.0;72.0;
78730;SPS30;68055;51.978;5.658;2023-05-16T12:15:38;1.4;1.3;1.1;0.8;;;;1.0;62.0;
78730;SPS30;68055;51.978;5.658;2023-05-16T12:18:09;1.5;1.4;1.2;0.9;;;;1.0;65.0;
78730;SPS30;68055;51.978;5.658;2023-05-16T12:20:40;1.3;1.2;1.0;0.8;;;;1.0;95.0;
78730;SPS30;68055;51.978;5.658;2023-05-16T12:23:13;1.9;1.8;1.5;1.1;;;;1.0;111.0;
78730;SPS30;68055;51.978;5.658;2023-05-16T12:25:45;1.7;1.6;1.3;0.9;;;;1.0;100.0;
78730;SPS30;68055;51.978;5.658;2023-05-16T12:28:16;1.3;1.2;1.0;0.7;;;;1.0;91.0;
78730;SPS30;68055;51.978;5.658;2023-05-16T12:30:45;1.8;1.7;1.4;1.0;;;;1.0;88.0;
78730;SPS30;68055;51.978;5.658;2023-05-16T12:33:15;2.0;1.9;1.5;1.1;;;;1.0;95.0;
78730;SPS30;68055;51.978;5.658;2023-05-16T12:35:45;1.7;1.6;1.3;1.0;;;;1.0;103.0;